Time;durP1;ratioP1;P1;durP2;ratioP2;P2;SDS_P1;SDS_P2;PMS_P1;PMS_P2;Temp;Humidity;BMP_temperature;BMP_pressure;BME280_temperature;BME280_humidity;BME280_pressure;Samples;Min_cycle;Max_cycle;Signal;HPM_P1;HPM_P2
2023/07/13 00:00:22;;;;;;;0.20;0.20;;;;;;;18.02;87.67;100282.75;5031497;28;20191;-82
2023/07/13 00:02:47;;;;;;;0.10;0.10;;;;;;;18.10;87.36;100280.94;5030478;28;20220;-82
2023/07/13 00:05:13;;;;;;;0.67;0.67;;;;;;;18.05;87.47;100282.00;5014082;28;20862;-81
2023/07/13 00:07:38;;;;;;;0.17;0.17;;;;;;;18.10;86.69;100290.03;5031559;28;20207;-82
2023/07/13 00:10:04;;;;;;;0.33;0.33;;;;;;;18.17;86.51;100303.16;5033819;28;20230;-82
2023/07/13 00:12:33;;;;;;;0.03;0.03;;;;;;;18.22;86.12;100304.81;5032239;28;20208;-81
2023/07/13 00:15:01;;;;;;;0.10;0.10;;;;;;;18.25;85.67;100295.81;5023803;28;20218;-82
2023/07/13 00:17:27;;;;;;;0.27;0.27;;;;;;;18.27;85.45;100308.13;5031925;28;20206;-83
2023/07/13 00:19:55;;;;;;;0.60;0.60;;;;;;;18.28;85.43;100308.91;5036726;28;20186;-83
2023/07/13 00:22:20;;;;;;;1.87;1.77;;;;;;;18.28;84.81;100309.72;5036902;28;20277;-82
2023/07/13 00:24:46;;;;;;;0.20;0.20;;;;;;;18.37;83.46;100318.59;5027496;28;20191;-83
2023/07/13 00:27:12;;;;;;;0.30;0.30;;;;;;;18.48;83.00;100306.91;5036506;28;20213;-83
2023/07/13 00:29:37;;;;;;;2.33;0.33;;;;;;;18.48;82.78;100299.38;5036894;28;20715;-82
2023/07/13 00:32:04;;;;;;;0.00;0.00;;;;;;;18.51;82.56;100312.47;5035744;28;20200;-82
2023/07/13 00:34:30;;;;;;;1.50;1.50;;;;;;;18.49;82.05;100302.97;5027766;28;20183;-83
2023/07/13 00:36:55;;;;;;;2.47;1.27;;;;;;;18.51;81.83;100293.13;5028691;28;20213;-82
2023/07/13 00:39:21;;;;;;;0.00;0.00;;;;;;;18.56;81.74;100295.59;5034997;28;20190;-82
2023/07/13 00:41:46;;;;;;;27.23;1.43;;;;;;;18.66;81.54;100306.09;5027923;28;20841;-82
2023/07/13 00:44:16;;;;;;;1.00;0.60;;;;;;;18.67;81.75;100302.16;5035287;28;20214;-82
2023/07/13 00:46:42;;;;;;;0.20;0.20;;;;;;;18.64;81.71;100299.31;5027167;28;20247;-82
2023/07/13 00:49:12;;;;;;;0.73;0.73;;;;;;;18.53;81.46;100304.63;5036311;28;20211;-82
2023/07/13 00:51:45;;;;;;;1.10;1.10;;;;;;;18.51;81.75;100308.91;5034808;28;20211;-82
2023/07/13 00:54:17;;;;;;;0.83;0.83;;;;;;;18.45;81.53;100300.13;5037059;28;20184;-83
2023/07/13 00:56:44;;;;;;;1.17;1.17;;;;;;;18.41;81.16;100297.31;5035049;28;20282;-82
2023/07/13 00:59:12;;;;;;;0.60;0.60;;;;;;;18.44;80.89;100291.03;5035148;28;20187;-83
2023/07/13 01:01:39;;;;;;;1.13;0.70;;;;;;;18.44;80.97;100293.00;5024214;28;20215;-84
2023/07/13 01:04:07;;;;;;;1.57;1.27;;;;;;;18.38;79.98;100288.97;5028945;28;20190;-83
2023/07/13 01:06:37;;;;;;;2.33;1.10;;;;;;;18.38;79.24;100280.66;5035857;28;20231;-82
2023/07/13 01:09:03;;;;;;;0.80;0.80;;;;;;;18.43;78.87;100281.13;5030811;28;20637;-83
2023/07/13 01:11:28;;;;;;;0.40;0.40;;;;;;;18.45;78.98;100283.53;5040157;28;20199;-82
2023/07/13 01:13:54;;;;;;;2.30;0.50;;;;;;;18.39;78.77;100288.59;5040060;28;20190;-81
2023/07/13 01:16:26;;;;;;;0.20;0.20;;;;;;;18.37;78.88;100292.84;5040347;28;20262;-81
2023/07/13 01:18:52;;;;;;;3.07;2.33;;;;;;;18.29;79.04;100286.41;5036952;28;20176;-83
2023/07/13 01:21:18;;;;;;;1.50;1.13;;;;;;;18.19;78.79;100284.25;5035591;28;20199;-83
2023/07/13 01:23:44;;;;;;;0.97;0.70;;;;;;;18.13;78.80;100282.97;5038763;28;20227;-82
2023/07/13 01:26:10;;;;;;;0.97;0.97;;;;;;;18.11;78.55;100288.06;5040312;28;20187;-81
2023/07/13 01:28:36;;;;;;;4.37;2.17;;;;;;;18.06;78.87;100282.81;5030045;28;20180;-80
2023/07/13 01:31:02;;;;;;;0.33;0.33;;;;;;;18.01;78.94;100291.41;5030965;28;20195;-83
2023/07/13 01:33:28;;;;;;;0.50;0.50;;;;;;;17.94;79.49;100297.59;5038058;28;20182;-82
2023/07/13 01:35:53;;;;;;;0.60;0.60;;;;;;;17.92;79.25;100288.84;5031248;28;20237;-82
2023/07/13 01:38:21;;;;;;;0.43;0.40;;;;;;;17.95;78.84;100292.88;5038318;28;20183;-83
2023/07/13 01:40:47;;;;;;;0.33;0.33;;;;;;;17.93;78.39;100293.22;5039190;28;20245;-83
2023/07/13 01:43:13;;;;;;;0.63;0.63;;;;;;;17.92;77.96;100296.34;5038029;28;20233;-82
2023/07/13 01:45:38;;;;;;;4.63;1.27;;;;;;;17.90;77.94;100299.47;5039444;28;20573;-82
2023/07/13 01:48:06;;;;;;;0.10;0.10;;;;;;;17.90;77.70;100293.16;5037772;28;20272;-82
2023/07/13 01:50:31;;;;;;;0.00;0.00;;;;;;;17.91;77.36;100291.97;5037336;28;20188;-81
2023/07/13 01:52:57;;;;;;;5.50;1.10;;;;;;;17.87;76.77;100293.88;5039211;28;20911;-83
2023/07/13 01:55:22;;;;;;;0.60;0.60;;;;;;;17.92;76.50;100296.34;5039163;28;20234;-82
2023/07/13 01:57:48;;;;;;;0.40;0.40;;;;;;;17.93;76.27;100298.75;5038277;28;20203;-82
2023/07/13 02:00:14;;;;;;;1.17;0.63;;;;;;;17.88;76.58;100301.00;5038476;28;20287;-81
2023/07/13 02:02:40;;;;;;;4.47;1.47;;;;;;;17.79;76.72;100301.22;5038247;28;20211;-82
2023/07/13 02:05:06;;;;;;;0.10;0.10;;;;;;;17.78;76.76;100300.41;5038994;28;20188;-82
2023/07/13 02:07:32;;;;;;;5.10;1.20;;;;;;;17.73;76.75;100291.63;5037524;28;20211;-82
2023/07/13 02:09:57;;;;;;;0.50;0.50;;;;;;;17.80;76.43;100311.13;5039227;28;20183;-83
2023/07/13 02:12:22;;;;;;;0.30;0.30;;;;;;;17.81;76.56;100304.44;5037784;28;20215;-82
2023/07/13 02:14:48;;;;;;;0.27;0.27;;;;;;;17.73;76.77;100297.97;5033561;28;20596;-81
2023/07/13 02:17:13;;;;;;;0.57;0.57;;;;;;;17.78;76.85;100303.19;5027158;28;20259;-82
2023/07/13 02:19:38;;;;;;;0.30;0.30;;;;;;;17.80;76.35;100311.13;5035744;28;20192;-82
2023/07/13 02:22:04;;;;;;;1.70;1.17;;;;;;;17.75;77.08;100316.94;5030352;28;20323;-82
2023/07/13 02:24:29;;;;;;;0.60;0.60;;;;;;;17.73;77.01;100310.97;5038428;28;20211;-81
2023/07/13 02:26:54;;;;;;;0.50;0.50;;;;;;;17.71;77.13;100318.84;5037665;28;20202;-82
2023/07/13 02:29:20;;;;;;;0.20;0.20;;;;;;;17.71;77.40;100321.59;5036668;28;20201;-82
2023/07/13 02:31:45;;;;;;;4.27;0.77;;;;;;;17.64;77.31;100318.63;5037167;28;20207;-81
2023/07/13 02:34:11;;;;;;;0.40;0.40;;;;;;;17.64;77.52;100322.19;5033963;28;20187;-82
2023/07/13 02:36:36;;;;;;;0.30;0.30;;;;;;;17.59;77.53;100313.41;5033763;28;20649;-82
2023/07/13 02:39:04;;;;;;;0.37;0.37;;;;;;;17.59;77.64;100310.63;5025316;28;20188;-83
2023/07/13 02:41:30;;;;;;;0.83;0.67;;;;;;;17.54;77.47;100311.72;5033999;28;20214;-82
2023/07/13 02:44:02;;;;;;;1.97;1.40;;;;;;;17.50;77.45;100314.44;5037811;28;20262;-82
2023/07/13 02:46:28;;;;;;;0.83;0.83;;;;;;;17.50;77.43;100299.78;5035752;28;20568;-83
2023/07/13 02:48:54;;;;;;;0.70;0.70;;;;;;;17.48;77.38;100308.44;5029402;28;20180;-82
2023/07/13 02:51:19;;;;;;;0.00;0.00;;;;;;;17.49;77.42;100312.00;5028362;28;20210;-81
2023/07/13 02:53:44;;;;;;;8.00;0.70;;;;;;;17.47;77.58;100317.09;5036756;28;20187;-82
2023/07/13 02:56:10;;;;;;;0.33;0.33;;;;;;;17.42;77.95;100318.19;5035312;28;20672;-82
2023/07/13 02:58:36;;;;;;;5.43;1.37;;;;;;;17.42;77.74;100322.91;5035442;28;20191;-82
2023/07/13 03:01:06;;;;;;;0.30;0.30;;;;;;;17.39;77.79;100316.13;5035476;28;20226;-82
2023/07/13 03:03:32;;;;;;;0.43;0.43;;;;;;;17.33;78.27;100316.75;5038601;28;20215;-81
2023/07/13 03:06:00;;;;;;;0.23;0.23;;;;;;;17.29;78.43;100319.44;5037537;28;20183;-81
2023/07/13 03:08:25;;;;;;;0.70;0.70;;;;;;;17.20;78.98;100327.13;5037588;28;20189;-81
2023/07/13 03:11:02;;;;;;;0.87;0.87;;;;;;;17.14;79.59;100334.88;5036615;28;20618;-83
2023/07/13 03:13:27;;;;;;;0.40;0.40;;;;;;;17.10;79.31;100320.22;5037179;28;20202;-82
2023/07/13 03:15:53;;;;;;;0.73;0.73;;;;;;;17.11;79.75;100321.81;5036106;28;20729;-82
2023/07/13 03:18:18;;;;;;;0.20;0.20;;;;;;;17.06;79.97;100319.28;5035214;28;20198;-81
2023/07/13 03:20:43;;;;;;;0.53;0.53;;;;;;;16.95;80.47;100318.25;5037431;28;20713;-82
2023/07/13 03:23:09;;;;;;;0.40;0.40;;;;;;;16.91;80.52;100322.88;5036052;28;20212;-82
2023/07/13 03:25:34;;;;;;;8.47;1.57;;;;;;;16.86;81.12;100329.47;5037180;28;20574;-82
2023/07/13 03:27:59;;;;;;;0.43;0.43;;;;;;;16.83;81.13;100329.41;5037245;28;20225;-82
2023/07/13 03:30:25;;;;;;;0.20;0.20;;;;;;;16.84;81.52;100334.56;5036765;28;20272;-82
2023/07/13 03:32:50;;;;;;;0.43;0.43;;;;;;;16.84;81.43;100333.75;5037139;28;20298;-82
2023/07/13 03:35:15;;;;;;;0.30;0.30;;;;;;;16.82;81.40;100338.84;5037078;28;20226;-82
2023/07/13 03:37:42;;;;;;;0.50;0.50;;;;;;;16.78;81.88;100333.22;5038742;28;20518;-83
2023/07/13 03:40:09;;;;;;;0.50;0.50;;;;;;;16.74;82.05;100345.31;5036806;28;20188;-82
2023/07/13 03:42:34;;;;;;;0.30;0.30;;;;;;;16.75;81.72;100339.44;5035722;28;20239;-82
2023/07/13 03:45:00;;;;;;;3.77;0.37;;;;;;;16.82;81.72;100341.59;5031334;28;20184;-82
2023/07/13 03:47:25;;;;;;;0.37;0.37;;;;;;;16.76;81.85;100343.78;5032888;28;20179;-83
2023/07/13 03:49:50;;;;;;;0.50;0.50;;;;;;;16.72;81.84;100348.44;5035424;28;20532;-83
2023/07/13 03:52:16;;;;;;;0.40;0.40;;;;;;;16.73;81.96;100349.22;5037248;28;20615;-82
2023/07/13 03:54:41;;;;;;;0.20;0.20;;;;;;;16.77;81.55;100347.34;5028062;28;20180;-82
2023/07/13 03:57:06;;;;;;;0.27;0.27;;;;;;;16.84;81.53;100351.09;5035102;28;20183;-82
2023/07/13 03:59:32;;;;;;;0.50;0.50;;;;;;;16.92;80.60;100343.78;5027544;28;20260;-82
2023/07/13 04:01:57;;;;;;;8.63;1.53;;;;;;;16.90;80.54;100340.59;5037104;28;20219;-82
2023/07/13 04:04:22;;;;;;;0.63;0.37;;;;;;;16.94;80.40;100341.50;5026632;28;20188;-82
2023/07/13 04:06:47;;;;;;;0.37;0.37;;;;;;;16.88;80.59;100334.63;5037885;28;20599;-83
2023/07/13 04:09:13;;;;;;;0.97;0.93;;;;;;;16.87;80.41;100333.03;5036002;28;20192;-82
2023/07/13 04:11:38;;;;;;;0.80;0.80;;;;;;;16.88;80.78;100340.16;5036083;28;20211;-82
2023/07/13 04:14:04;;;;;;;0.80;0.80;;;;;;;16.92;80.22;100344.63;5029887;28;20259;-82
2023/07/13 04:16:29;;;;;;;0.90;0.90;;;;;;;16.98;80.44;100350.66;5035109;28;20180;-83
2023/07/13 04:18:59;;;;;;;0.20;0.20;;;;;;;16.98;80.31;100347.91;5031918;28;20181;-86
2023/07/13 04:21:25;;;;;;;0.30;0.30;;;;;;;16.97;80.66;100345.50;5012275;28;20255;-87
2023/07/13 04:23:51;;;;;;;6.90;0.50;;;;;;;16.93;80.06;100343.47;5025801;28;20191;-86
2023/07/13 04:26:16;;;;;;;0.93;0.93;;;;;;;17.05;79.76;100355.53;5017995;28;20189;-86
2023/07/13 04:28:42;;;;;;;0.67;0.60;;;;;;;17.01;80.10;100349.16;5023106;28;20184;-86
2023/07/13 04:31:07;;;;;;;0.37;0.37;;;;;;;17.05;79.97;100356.34;5018364;28;20702;-86
2023/07/13 04:33:33;;;;;;;2.43;1.07;;;;;;;17.08;79.85;100350.13;5012834;28;20182;-86
2023/07/13 04:35:59;;;;;;;1.27;0.90;;;;;;;17.11;79.75;100360.47;5020171;28;20223;-86
2023/07/13 04:38:27;;;;;;;0.00;0.00;;;;;;;17.20;79.81;100366.56;5013249;28;20647;-87
2023/07/13 04:40:56;;;;;;;0.30;0.30;;;;;;;17.28;79.94;100370.31;5020913;28;20185;-86
2023/07/13 04:43:21;;;;;;;0.40;0.40;;;;;;;17.24;79.38;100358.41;5024849;28;20208;-85
2023/07/13 04:45:47;;;;;;;0.60;0.60;;;;;;;17.22;79.46;100357.97;5023709;28;20259;-86
2023/07/13 04:48:12;;;;;;;10.10;2.80;;;;;;;17.35;78.98;100380.72;5032063;28;20192;-86
2023/07/13 04:50:38;;;;;;;0.40;0.40;;;;;;;17.34;79.18;100371.63;5025510;28;20184;-85
2023/07/13 04:53:04;;;;;;;14.90;0.77;;;;;;;17.39;79.10;100376.09;5029934;28;20184;-87
2023/07/13 04:55:30;;;;;;;0.60;0.50;;;;;;;17.37;78.68;100370.94;5018292;28;20238;-86
2023/07/13 04:57:56;;;;;;;0.00;0.00;;;;;;;17.48;78.70;100379.47;5027274;28;20249;-86
2023/07/13 05:00:21;;;;;;;1.03;0.83;;;;;;;17.55;78.67;100379.63;5027018;28;20183;-87
2023/07/13 05:02:47;;;;;;;1.63;1.53;;;;;;;17.60;78.44;100378.53;5020546;22;20228;-92
2023/07/13 05:05:12;;;;;;;0.40;0.40;;;;;;;17.61;78.53;100378.19;4992493;28;20327;-92
2023/07/13 05:07:37;;;;;;;3.00;0.80;;;;;;;17.64;78.43;100385.75;4981452;28;20188;-91
2023/07/13 05:10:04;;;;;;;1.73;1.63;;;;;;;17.71;78.79;100396.19;4980603;28;20309;-91
2023/07/13 05:12:29;;;;;;;0.23;0.23;;;;;;;17.61;78.81;100391.19;5003405;28;20566;-91
2023/07/13 05:14:55;;;;;;;1.80;0.87;;;;;;;17.62;78.89;100393.59;4983531;28;20192;-90
2023/07/13 05:19:50;;;;;;;1.10;0.30;;;;;;;17.87;79.19;100412.75;5053408;28;20218;-77
2023/07/13 05:22:15;;;;;;;0.10;0.10;;;;;;;17.82;78.96;100411.88;5063683;28;20211;-76
2023/07/13 05:24:40;;;;;;;0.87;0.67;;;;;;;17.87;79.12;100416.31;5063477;28;20207;-77
2023/07/13 05:27:06;;;;;;;0.10;0.10;;;;;;;18.02;78.59;100420.19;5062231;28;20183;-76
2023/07/13 05:29:31;;;;;;;0.20;0.20;;;;;;;17.97;78.67;100415.75;5062573;28;20719;-77
2023/07/13 05:31:56;;;;;;;0.30;0.30;;;;;;;18.05;78.41;100420.25;5061338;28;20258;-76
2023/07/13 05:34:22;;;;;;;0.20;0.20;;;;;;;18.10;78.72;100433.81;5043053;28;20249;-77
2023/07/13 05:36:49;;;;;;;0.50;0.50;;;;;;;18.08;78.86;100429.78;5042689;28;20261;-77
2023/07/13 05:39:14;;;;;;;0.00;0.00;;;;;;;18.07;78.37;100426.22;5060374;28;20616;-76
2023/07/13 05:41:39;;;;;;;0.27;0.20;;;;;;;18.13;78.61;100440.56;5060457;28;20203;-76
2023/07/13 05:44:05;;;;;;;0.10;0.10;;;;;;;18.25;79.27;100445.19;5062115;28;20213;-77
2023/07/13 05:46:30;;;;;;;0.00;0.00;;;;;;;18.36;78.57;100446.97;5062225;28;20187;-77
2023/07/13 05:48:56;;;;;;;1.20;1.10;;;;;;;18.40;77.56;100431.28;5045804;28;20179;-78
2023/07/13 05:51:21;;;;;;;0.00;0.00;;;;;;;18.55;76.87;100434.31;5063159;28;20244;-77
2023/07/13 05:53:46;;;;;;;0.00;0.00;;;;;;;18.74;77.45;100453.69;5062783;28;20217;-78
2023/07/13 05:56:12;;;;;;;0.00;0.00;;;;;;;18.83;76.48;100450.72;5044665;28;20252;-77
2023/07/13 05:58:38;;;;;;;17.33;0.87;;;;;;;18.81;75.29;100445.53;5061998;28;20175;-76
2023/07/13 06:01:06;;;;;;;0.00;0.00;;;;;;;18.89;75.44;100450.03;5056632;28;20216;-76
2023/07/13 06:03:32;;;;;;;4.87;0.30;;;;;;;18.75;75.16;100438.69;5041553;28;20213;-76
2023/07/13 06:06:00;;;;;;;0.10;0.03;;;;;;;18.73;75.38;100435.50;5043878;28;20234;-76
2023/07/13 06:08:25;;;;;;;5.17;0.90;;;;;;;18.80;75.41;100456.94;5044248;28;20191;-77
2023/07/13 06:10:50;;;;;;;0.67;0.67;;;;;;;18.84;74.83;100452.31;5063286;28;20183;-78
2023/07/13 06:13:15;;;;;;;1.60;1.27;;;;;;;18.86;74.46;100441.66;5042447;28;20203;-76
2023/07/13 06:15:41;;;;;;;0.40;0.40;;;;;;;18.81;74.78;100440.00;5069163;28;20175;-78
2023/07/13 06:18:06;;;;;;;7.07;0.70;;;;;;;18.77;74.90;100438.31;5070224;28;20206;-77
2023/07/13 06:20:34;;;;;;;2.37;0.83;;;;;;;18.78;75.01;100446.25;5064942;28;20563;-78
2023/07/13 06:23:01;;;;;;;0.40;0.33;;;;;;;18.84;73.41;100444.81;5044805;28;20205;-78
2023/07/13 06:25:26;;;;;;;0.50;0.50;;;;;;;18.68;72.79;100431.06;5051806;28;20176;-77
2023/07/13 06:27:52;;;;;;;1.50;1.37;;;;;;;18.72;73.11;100436.66;5039597;28;20182;-77
2023/07/13 06:30:17;;;;;;;3.60;0.93;;;;;;;18.68;71.44;100419.19;5063664;28;20179;-78
2023/07/13 06:32:42;;;;;;;0.40;0.40;;;;;;;18.69;71.15;100420.78;5064299;28;20187;-76
2023/07/13 06:35:08;;;;;;;2.00;0.83;;;;;;;18.57;71.18;100412.63;5064937;28;20209;-77
2023/07/13 06:37:33;;;;;;;0.43;0.43;;;;;;;18.54;71.36;100410.59;5046745;28;20276;-78
2023/07/13 06:39:58;;;;;;;0.73;0.70;;;;;;;18.54;71.21;100413.34;5047432;28;20184;-77
2023/07/13 06:42:24;;;;;;;0.87;0.87;;;;;;;18.47;70.87;100410.44;5028712;28;20200;-77
2023/07/13 06:44:49;;;;;;;8.63;1.00;;;;;;;18.50;71.64;100420.75;5046539;28;20312;-77
2023/07/13 06:47:14;;;;;;;1.47;1.37;;;;;;;18.50;71.63;100415.22;5042298;28;20275;-77
2023/07/13 06:49:39;;;;;;;0.90;0.80;;;;;;;18.41;71.23;100412.69;5045986;28;20180;-77
2023/07/13 06:52:05;;;;;;;8.57;1.27;;;;;;;18.29;71.50;100419.19;5041802;28;20172;-77
2023/07/13 06:54:31;;;;;;;2.90;1.30;;;;;;;18.19;71.11;100405.91;5023116;28;20529;-77
2023/07/13 06:56:56;;;;;;;0.93;0.93;;;;;;;18.26;72.03;100424.66;5024015;28;20171;-77
2023/07/13 06:59:21;;;;;;;0.10;0.10;;;;;;;18.40;72.20;100430.47;5049019;28;20182;-76
2023/07/13 07:01:46;;;;;;;0.30;0.30;;;;;;;18.46;71.84;100431.75;5032326;28;20219;-78
2023/07/13 07:04:12;;;;;;;0.20;0.20;;;;;;;18.43;72.04;100435.28;5044755;28;20196;-78
2023/07/13 07:06:37;;;;;;;0.53;0.53;;;;;;;18.50;72.70;100440.94;5047741;28;20175;-78
2023/07/13 07:09:03;;;;;;;1.23;0.50;;;;;;;18.40;71.82;100434.03;5029495;28;20198;-78
2023/07/13 07:11:28;;;;;;;0.20;0.20;;;;;;;18.40;71.53;100420.19;5046881;28;20668;-77
2023/07/13 07:13:54;;;;;;;0.20;0.20;;;;;;;18.40;71.65;100428.50;5046449;28;20619;-78
2023/07/13 07:16:20;;;;;;;0.50;0.50;;;;;;;18.46;71.89;100433.72;5044604;28;20225;-78
2023/07/13 07:18:46;;;;;;;3.00;0.93;;;;;;;18.49;71.59;100438.53;5043511;28;20186;-77
2023/07/13 07:21:12;;;;;;;1.00;0.97;;;;;;;18.33;71.10;100430.31;5043232;28;20206;-78
2023/07/13 07:23:38;;;;;;;0.80;0.80;;;;;;;18.44;71.58;100420.28;5034295;28;20293;-78
2023/07/13 07:26:04;;;;;;;2.63;0.83;;;;;;;18.39;70.67;100424.13;5058193;28;20202;-78
2023/07/13 07:28:29;;;;;;;0.23;0.23;;;;;;;18.43;70.90;100425.00;5063230;28;20190;-77
2023/07/13 07:30:57;;;;;;;0.30;0.30;;;;;;;18.53;70.72;100431.91;5064027;28;20183;-76
2023/07/13 07:33:22;;;;;;;0.47;0.47;;;;;;;18.58;70.50;100428.06;5046417;28;20199;-78
2023/07/13 07:35:48;;;;;;;0.67;0.67;;;;;;;18.53;70.17;100422.81;5047344;28;20183;-78
2023/07/13 07:38:13;;;;;;;4.63;1.03;;;;;;;18.57;70.58;100424.47;5043197;28;20191;-76
2023/07/13 07:40:40;;;;;;;0.47;0.47;;;;;;;18.58;70.44;100430.81;5070337;28;20691;-78
2023/07/13 07:43:06;;;;;;;2.43;1.07;;;;;;;18.53;69.87;100425.59;5053103;28;20203;-78
2023/07/13 07:45:32;;;;;;;0.10;0.10;;;;;;;18.68;69.23;100421.97;5070542;28;20183;-77
2023/07/13 07:47:58;;;;;;;17.27;1.13;;;;;;;18.79;69.59;100434.00;5049990;28;20183;-77
2023/07/13 07:50:25;;;;;;;0.40;0.40;;;;;;;18.86;68.89;100430.59;5059496;28;20187;-80
2023/07/13 07:52:50;;;;;;;0.70;0.70;;;;;;;18.84;69.02;100433.72;5056246;28;20307;-81
2023/07/13 07:55:16;;;;;;;0.43;0.43;;;;;;;18.86;69.23;100439.69;5042600;28;20179;-80
2023/07/13 07:57:41;;;;;;;0.53;0.23;;;;;;;18.79;68.29;100428.47;5058354;28;20175;-78
2023/07/13 08:00:07;;;;;;;0.30;0.30;;;;;;;18.76;69.14;100425.66;5064137;28;20179;-78
2023/07/13 08:02:32;;;;;;;0.27;0.27;;;;;;;18.82;69.49;100435.25;5062893;28;20203;-77
2023/07/13 08:04:57;;;;;;;0.20;0.20;;;;;;;18.87;69.44;100430.22;5040405;28;20205;-76
2023/07/13 08:07:23;;;;;;;0.17;0.10;;;;;;;18.95;69.34;100433.91;5059669;28;20224;-83
2023/07/13 08:09:52;;;;;;;0.37;0.37;;;;;;;19.05;68.65;100438.03;5048491;28;20372;-75
2023/07/13 08:12:17;;;;;;;0.40;0.37;;;;;;;19.07;68.53;100435.69;5049856;28;20179;-82
2023/07/13 08:14:42;;;;;;;3.97;0.17;;;;;;;19.10;68.83;100443.28;5049625;28;20210;-76
2023/07/13 08:17:08;;;;;;;0.63;0.53;;;;;;;19.05;69.11;100438.84;5036101;28;20175;-77
2023/07/13 08:19:33;;;;;;;0.80;0.80;;;;;;;19.03;68.62;100427.34;5056213;28;20187;-76
2023/07/13 08:21:58;;;;;;;3.77;0.73;;;;;;;19.14;68.99;100435.84;5056849;28;20207;-77
2023/07/13 08:24:23;;;;;;;0.00;0.00;;;;;;;19.32;68.81;100448.00;5038760;28;20206;-76
2023/07/13 08:26:50;;;;;;;1.17;0.47;;;;;;;19.43;67.45;100437.91;5038077;28;20641;-76
2023/07/13 08:29:16;;;;;;;0.67;0.50;;;;;;;19.50;66.67;100443.56;5038706;28;20254;-77
2023/07/13 08:31:41;;;;;;;1.70;1.03;;;;;;;19.50;66.13;100438.00;5055540;28;20269;-77
2023/07/13 08:34:06;;;;;;;0.63;0.23;;;;;;;19.61;67.24;100450.09;5033883;28;20194;-78
2023/07/13 08:36:31;;;;;;;3.73;0.60;;;;;;;19.64;67.12;100439.44;5057151;28;20559;-76
2023/07/13 08:38:57;;;;;;;0.20;0.20;;;;;;;19.55;65.87;100434.16;5056446;28;20179;-77
2023/07/13 08:41:23;;;;;;;12.93;1.23;;;;;;;19.58;66.19;100434.22;5038766;28;20563;-77
2023/07/13 08:43:51;;;;;;;1.47;1.37;;;;;;;19.64;67.44;100448.56;5040025;28;20243;-77
2023/07/13 08:46:36;;;;;;;5.40;0.50;;;;;;;19.61;66.18;100439.00;5057199;28;20206;-77
2023/07/13 08:49:05;;;;;;;0.20;0.17;;;;;;;19.64;66.58;100428.34;5040016;28;20646;-77
2023/07/13 08:51:45;;;;;;;3.03;0.70;;;;;;;19.65;66.11;100435.50;5057183;28;20183;-76
2023/07/13 08:54:20;;;;;;;0.70;0.70;;;;;;;19.75;65.89;100438.44;5056896;28;20289;-77
2023/07/13 08:56:49;;;;;;;7.20;0.40;;;;;;;19.87;65.68;100442.97;5038992;28;20189;-77
2023/07/13 08:59:20;;;;;;;3.40;1.20;;;;;;;20.05;65.76;100451.53;5040206;28;20674;-78
2023/07/13 09:02:10;;;;;;;3.30;0.60;;;;;;;20.10;65.39;100454.75;5040345;28;20739;-77
2023/07/13 09:05:04;;;;;;;0.33;0.20;;;;;;;20.33;65.22;100460.22;5041062;28;20207;-77
2023/07/13 09:07:58;;;;;;;1.00;0.40;;;;;;;20.66;64.93;100473.34;5033914;28;20221;-76
2023/07/13 09:10:33;;;;;;;4.30;0.50;;;;;;;20.90;64.49;100465.69;5032817;28;20184;-76
2023/07/13 09:13:43;;;;;;;1.43;1.07;;;;;;;20.80;63.25;100451.28;5040259;28;20179;-77
2023/07/13 09:16:11;;;;;;;0.83;0.83;;;;;;;20.90;63.38;100447.03;5040585;28;20657;-77
2023/07/13 09:18:42;;;;;;;1.47;0.83;;;;;;;20.96;63.61;100458.59;5041207;28;20194;-76
2023/07/13 09:21:47;;;;;;;1.50;1.40;;;;;;;20.60;63.10;100447.09;5057094;28;20179;-77
2023/07/13 09:24:30;;;;;;;0.40;0.40;;;;;;;20.74;63.86;100455.59;4999354;28;20673;-77
2023/07/13 09:26:57;;;;;;;1.13;1.03;;;;;;;20.84;63.92;100462.47;5037485;28;20187;-77
2023/07/13 09:29:34;;;;;;;1.10;1.10;;;;;;;20.71;63.12;100452.78;5043478;28;20683;-76
2023/07/13 09:32:03;;;;;;;7.07;1.80;;;;;;;20.52;62.69;100442.63;5043423;28;20178;-77
2023/07/13 09:34:30;;;;;;;1.13;1.07;;;;;;;20.53;63.07;100441.47;5045864;28;20222;-76
2023/07/13 09:36:56;;;;;;;4.47;1.33;;;;;;;20.53;64.23;100455.34;5064000;28;20233;-77
2023/07/13 09:39:32;;;;;;;14.10;1.07;;;;;;;20.46;64.17;100449.72;5050192;28;20179;-78
2023/07/13 09:42:16;;;;;;;0.83;0.83;;;;;;;20.68;63.34;100451.53;5066349;28;20210;-78
2023/07/13 09:44:48;;;;;;;1.73;1.13;;;;;;;20.64;63.06;100449.91;5065142;28;20678;-78
2023/07/13 09:47:38;;;;;;;0.27;0.27;;;;;;;20.52;64.14;100434.31;5042312;28;20215;-77
2023/07/13 09:50:07;;;;;;;1.07;0.77;;;;;;;20.70;63.26;100452.00;5054425;28;20179;-77
2023/07/13 09:52:47;;;;;;;6.07;1.27;;;;;;;20.91;62.89;100442.28;5060471;28;20176;-78
2023/07/13 09:55:36;;;;;;;1.07;1.00;;;;;;;20.98;62.44;100445.16;5041658;28;20185;-77
2023/07/13 09:58:22;;;;;;;2.70;1.10;;;;;;;21.25;62.83;100454.13;5050280;28;20187;-78
2023/07/13 10:00:59;;;;;;;0.20;0.20;;;;;;;21.39;62.21;100449.50;5057500;28;20190;-77
2023/07/13 10:03:32;;;;;;;0.47;0.47;;;;;;;21.54;61.33;100444.03;5051564;28;20234;-77
2023/07/13 10:06:10;;;;;;;1.60;1.00;;;;;;;21.69;59.78;100438.19;5038878;28;20210;-78
2023/07/13 10:08:36;;;;;;;2.07;1.40;;;;;;;21.79;60.99;100444.22;5037995;28;20183;-75
2023/07/13 10:11:22;;;;;;;3.53;0.93;;;;;;;21.89;59.06;100435.97;5044103;28;20188;-77
2023/07/13 10:13:55;;;;;;;5.63;2.37;;;;;;;22.14;59.01;100446.47;5038408;28;20677;-77
2023/07/13 10:16:21;;;;;;;4.50;1.00;;;;;;;21.92;58.46;100431.59;5062557;28;20243;-77
2023/07/13 10:18:52;;;;;;;0.63;0.63;;;;;;;22.05;58.49;100438.47;5055121;28;20704;-77
2023/07/13 10:21:20;;;;;;;1.20;0.87;;;;;;;22.20;57.99;100440.13;5043662;28;20185;-77
2023/07/13 10:23:57;;;;;;;1.03;0.97;;;;;;;22.37;59.44;100448.94;5037399;28;20372;-78
2023/07/13 10:26:31;;;;;;;0.77;0.77;;;;;;;22.45;59.51;100456.94;5061464;28;20222;-77
2023/07/13 10:29:01;;;;;;;1.63;0.77;;;;;;;22.35;57.65;100435.41;5058001;28;20206;-77
2023/07/13 10:31:27;;;;;;;1.03;1.03;;;;;;;22.22;56.86;100434.16;5062021;28;20175;-76
2023/07/13 10:33:53;;;;;;;1.57;1.27;;;;;;;22.33;57.70;100437.00;5032205;28;20199;-78
2023/07/13 10:36:33;;;;;;;6.10;1.17;;;;;;;21.98;56.95;100425.25;5060648;28;20245;-77
2023/07/13 10:39:02;;;;;;;0.70;0.70;;;;;;;22.01;58.18;100436.81;5038369;28;20202;-77
2023/07/13 10:41:31;;;;;;;0.50;0.50;;;;;;;22.30;57.16;100440.59;5062952;28;20302;-76
2023/07/13 10:43:58;;;;;;;1.47;1.20;;;;;;;22.40;57.48;100429.47;5044971;28;20636;-77
2023/07/13 10:46:30;;;;;;;1.03;0.97;;;;;;;22.41;55.86;100436.63;5042655;28;20179;-76
2023/07/13 10:49:02;;;;;;;0.30;0.20;;;;;;;22.51;56.08;100435.09;5062552;28;20183;-78
2023/07/13 10:51:29;;;;;;;1.00;0.73;;;;;;;22.25;56.03;100425.81;5063906;28;20295;-76
2023/07/13 10:54:23;;;;;;;0.60;0.60;;;;;;;22.22;56.38;100432.19;5062615;28;20227;-77
2023/07/13 10:56:52;;;;;;;0.73;0.40;;;;;;;22.67;56.84;100443.09;5061226;28;20196;-77
2023/07/13 10:59:29;;;;;;;0.93;0.90;;;;;;;22.68;54.64;100419.59;5046641;28;20181;-77
2023/07/13 11:01:56;;;;;;;0.10;0.10;;;;;;;22.70;55.22;100429.16;5045869;28;20204;-77
2023/07/13 11:04:25;;;;;;;0.33;0.33;;;;;;;22.53;55.60;100427.13;5062445;28;20215;-77
2023/07/13 11:06:55;;;;;;;2.43;1.47;;;;;;;22.29;56.04;100425.88;5061938;28;20179;-78
2023/07/13 11:09:40;;;;;;;7.33;1.73;;;;;;;22.15;56.29;100423.03;5061124;28;20184;-77
2023/07/13 11:12:17;;;;;;;0.87;0.87;;;;;;;22.34;55.42;100416.31;5061542;28;20255;-78
2023/07/13 11:14:55;;;;;;;0.30;0.30;;;;;;;22.67;55.26;100435.53;5062619;28;20210;-76
2023/07/13 11:17:32;;;;;;;0.40;0.40;;;;;;;22.55;54.52;100419.19;5062530;28;20259;-77
2023/07/13 11:20:32;;;;;;;0.50;0.50;;;;;;;22.62;54.31;100426.78;5044274;28;20191;-78
2023/07/13 11:23:06;;;;;;;0.57;0.57;;;;;;;22.51;54.23;100418.38;5057176;28;20203;-78
2023/07/13 11:25:34;;;;;;;0.77;0.60;;;;;;;22.24;54.84;100407.53;5060354;28;20204;-78
2023/07/13 11:28:16;;;;;;;0.40;0.40;;;;;;;22.03;54.93;100417.75;5059483;28;20181;-77
2023/07/13 11:31:13;;;;;;;0.87;0.87;;;;;;;21.97;55.62;100414.53;5041359;28;20191;-78